Time;durP1;ratioP1;P1;durP2;ratioP2;P2;SDS_P1;SDS_P2;PMS_P1;PMS_P2;Temp;Humidity;BMP_temperature;BMP_pressure;BME280_temperature;BME280_humidity;BME280_pressure;Samples;Min_cycle;Max_cycle;Signal;HPM_P1;HPM_P2
2022/05/13 00:00:53;;;;;;;;;;;19.00;79.00;;;;;;5113765;28;19951;-91
2022/05/13 00:03:19;;;;;;;;;;;19.00;79.70;;;;;;5113775;28;19942;-91
2022/05/13 00:05:44;;;;;;;;;;;19.00;79.60;;;;;;5113541;28;19920;-91
2022/05/13 00:08:10;;;;;;;;;;;18.90;79.50;;;;;;5113744;28;19908;-91
2022/05/13 00:10:35;;;;;;;;;;;18.80;79.70;;;;;;5113770;28;19935;-91
2022/05/13 00:13:01;;;;;;;;;;;18.80;79.70;;;;;;5113626;28;19947;-91
2022/05/13 00:15:27;;;;;;;;;;;18.70;80.60;;;;;;5113547;28;19923;-91
2022/05/13 00:17:56;;;;;;;;;;;18.60;81.30;;;;;;5113866;28;19915;-92
2022/05/13 00:20:25;;;;;;;;;;;18.50;81.60;;;;;;5113607;28;19908;-91
2022/05/13 00:22:53;;;;;;;;;;;18.50;81.70;;;;;;5117291;28;19934;-90
2022/05/13 00:25:20;;;;;;;;;;;18.40;81.60;;;;;;5117764;28;19911;-91
2022/05/13 00:27:45;;;;;;;;;;;18.40;81.40;;;;;;5118124;28;19992;-91
2022/05/13 00:30:11;;;;;;;;;;;18.30;82.30;;;;;;5117776;28;20001;-91
2022/05/13 00:32:37;;;;;;;;;;;18.30;82.40;;;;;;5117529;28;19961;-90
2022/05/13 00:35:03;;;;;;;;;;;18.30;82.20;;;;;;5117706;28;19908;-92
2022/05/13 00:37:29;;;;;;;;;;;18.20;82.10;;;;;;5117240;28;20292;-91
2022/05/13 00:39:54;;;;;;;;;;;18.20;82.00;;;;;;5117624;28;19946;-90
2022/05/13 00:42:22;;;;;;;;;;;18.30;81.80;;;;;;5117587;28;19912;-91
2022/05/13 00:44:48;;;;;;;;;;;18.30;81.70;;;;;;5117259;28;19951;-91
2022/05/13 00:47:13;;;;;;;;;;;18.20;81.60;;;;;;5117435;28;19972;-91
2022/05/13 00:49:39;;;;;;;;;;;18.30;81.80;;;;;;5117406;28;19951;-91
2022/05/13 00:52:05;;;;;;;;;;;18.20;81.70;;;;;;5117292;28;19942;-91
2022/05/13 00:54:32;;;;;;;;;;;18.20;82.00;;;;;;5117299;28;19947;-91
2022/05/13 00:56:59;;;;;;;;;;;18.20;82.30;;;;;;5117265;28;19914;-91
2022/05/13 00:59:26;;;;;;;;;;;18.10;82.50;;;;;;5117214;28;19908;-91
2022/05/13 01:01:51;;;;;;;;;;;18.00;82.90;;;;;;5117123;28;20404;-91
2022/05/13 01:04:18;;;;;;;;;;;18.00;83.30;;;;;;5098644;28;19971;-91
2022/05/13 01:06:46;;;;;;;;;;;18.00;83.50;;;;;;5098568;28;20103;-91
2022/05/13 01:09:12;;;;;;;;;;;18.10;83.10;;;;;;5116762;28;19912;-91
2022/05/13 01:11:38;;;;;;;;;;;18.20;83.10;;;;;;5116992;28;20397;-91
2022/05/13 01:14:24;;;;;;;;;;;18.30;82.90;;;;;;5116949;28;19926;-91
2022/05/13 01:19:34;;;;;;;;;;;18.30;82.80;;;;;;5117187;28;19995;-91
2022/05/13 01:22:13;;;;;;;;;;;18.30;82.70;;;;;;5116704;28;19963;-92
2022/05/13 01:24:39;;;;;;;;;;;18.30;82.70;;;;;;5116599;28;19915;-92
2022/05/13 01:27:04;;;;;;;;;;;18.20;82.70;;;;;;5116649;28;19908;-91
2022/05/13 01:29:30;;;;;;;;;;;18.20;82.80;;;;;;5116621;28;19929;-91
2022/05/13 01:31:56;;;;;;;;;;;18.10;82.70;;;;;;5116548;28;19931;-91
2022/05/13 01:34:21;;;;;;;;;;;18.10;82.80;;;;;;5097400;28;20304;-91
2022/05/13 01:36:47;;;;;;;;;;;18.10;83.00;;;;;;5116403;28;19915;-91
2022/05/13 01:39:12;;;;;;;;;;;18.00;83.10;;;;;;5116397;28;19945;-91
2022/05/13 01:41:38;;;;;;;;;;;18.10;83.30;;;;;;5116439;28;20310;-91
2022/05/13 01:44:04;;;;;;;;;;;18.10;83.30;;;;;;5116370;28;19989;-91
2022/05/13 01:46:29;;;;;;;;;;;18.10;83.20;;;;;;5116240;28;19938;-91
2022/05/13 01:48:55;;;;;;;;;;;18.10;83.30;;;;;;5116199;28;19991;-91
2022/05/13 01:51:21;;;;;;;;;;;18.20;83.20;;;;;;5097902;28;19939;-91
2022/05/13 01:53:46;;;;;;;;;;;18.20;83.10;;;;;;5116145;28;20283;-91
2022/05/13 01:56:12;;;;;;;;;;;18.30;82.90;;;;;;5097793;28;19914;-91
2022/05/13 01:58:38;;;;;;;;;;;18.30;82.70;;;;;;5116089;28;20018;-91
2022/05/13 02:01:04;;;;;;;;;;;18.30;82.70;;;;;;5115968;28;19970;-91
2022/05/13 02:03:45;;;;;;;;;;;18.20;82.80;;;;;;5115968;28;19915;-91
2022/05/13 02:06:19;;;;;;;;;;;18.10;83.20;;;;;;5093981;28;19971;-91
2022/05/13 02:08:45;;;;;;;;;;;18.00;83.60;;;;;;5075314;28;19909;-91
2022/05/13 02:11:10;;;;;;;;;;;18.00;83.80;;;;;;5075237;28;19916;-91
2022/05/13 02:13:36;;;;;;;;;;;18.00;83.50;;;;;;5075157;28;20387;-91
2022/05/13 02:16:03;;;;;;;;;;;17.90;83.80;;;;;;5075122;28;19998;-91
2022/05/13 02:18:28;;;;;;;;;;;17.90;83.70;;;;;;5075107;28;19982;-91
2022/05/13 02:20:55;;;;;;;;;;;17.80;83.60;;;;;;5075046;28;19929;-91
2022/05/13 02:23:21;;;;;;;;;;;17.80;83.60;;;;;;5073752;28;19913;-91
2022/05/13 02:25:47;;;;;;;;;;;17.80;83.80;;;;;;5074882;28;19936;-90
2022/05/13 02:28:14;;;;;;;;;;;17.80;84.10;;;;;;5074898;28;20390;-91
2022/05/13 02:30:39;;;;;;;;;;;17.80;84.10;;;;;;5074837;28;19932;-91
2022/05/13 02:33:05;;;;;;;;;;;17.80;84.00;;;;;;5074748;28;19934;-91
2022/05/13 02:35:30;;;;;;;;;;;17.90;83.90;;;;;;5074742;28;20403;-92
2022/05/13 02:37:56;;;;;;;;;;;17.80;83.70;;;;;;5087599;28;19931;-92
2022/05/13 02:41:11;;;;;;;;;;;17.70;83.80;;;;;;5094868;28;19972;-91
2022/05/13 02:43:07;;;;;;;;;;;17.60;84.20;;;;;;5094599;28;19991;-92
2022/05/13 02:45:32;;;;;;;;;;;17.60;84.90;;;;;;5093622;28;19981;-91
2022/05/13 02:47:58;;;;;;;;;;;17.60;84.80;;;;;;5094779;28;19954;-92
2022/05/13 02:50:25;;;;;;;;;;;17.60;84.70;;;;;;5094695;28;19915;-91
2022/05/13 02:52:51;;;;;;;;;;;17.60;84.70;;;;;;5094640;28;19952;-93
2022/05/13 02:55:19;;;;;;;;;;;17.50;85.00;;;;;;5094658;28;19946;-91
2022/05/13 02:57:45;;;;;;;;;;;17.60;85.20;;;;;;5094592;28;19908;-92
2022/05/13 03:00:11;;;;;;;;;;;17.60;85.40;;;;;;5093175;28;20299;-91
2022/05/13 03:02:36;;;;;;;;;;;17.70;85.20;;;;;;5094498;28;19949;-91
2022/05/13 03:05:02;;;;;;;;;;;17.70;85.10;;;;;;5104624;28;20009;-91
2022/05/13 03:07:28;;;;;;;;;;;17.70;84.90;;;;;;5114456;28;19940;-91
2022/05/13 03:09:54;;;;;;;;;;;17.80;84.80;;;;;;5114872;28;19935;-91
2022/05/13 03:12:19;;;;;;;;;;;17.70;84.70;;;;;;5096377;28;19918;-91
2022/05/13 03:14:45;;;;;;;;;;;17.70;84.80;;;;;;5114581;28;19908;-91
2022/05/13 03:17:10;;;;;;;;;;;17.70;84.80;;;;;;5114540;28;20296;-91
2022/05/13 03:19:36;;;;;;;;;;;17.70;84.80;;;;;;5114462;28;20390;-91
2022/05/13 03:22:02;;;;;;;;;;;17.70;85.00;;;;;;5114364;28;20542;-91
2022/05/13 03:24:28;;;;;;;;;;;17.70;84.90;;;;;;5114378;28;19911;-91
2022/05/13 03:26:54;;;;;;;;;;;17.70;84.90;;;;;;5096076;28;19972;-91
2022/05/13 03:29:20;;;;;;;;;;;17.60;84.90;;;;;;5114296;28;19933;-91
2022/05/13 03:31:45;;;;;;;;;;;17.60;85.10;;;;;;5096308;28;19908;-91
2022/05/13 03:34:11;;;;;;;;;;;17.50;85.50;;;;;;5114117;28;19951;-91
2022/05/13 03:36:37;;;;;;;;;;;17.50;85.80;;;;;;5114050;28;19964;-91
2022/05/13 03:39:02;;;;;;;;;;;17.50;85.90;;;;;;5114091;28;19907;-91
2022/05/13 03:41:28;;;;;;;;;;;17.40;86.00;;;;;;5114181;28;19991;-91
2022/05/13 03:43:53;;;;;;;;;;;17.40;85.90;;;;;;5113999;28;20380;-91
2022/05/13 03:46:19;;;;;;;;;;;17.30;85.80;;;;;;5113920;28;19947;-91
2022/05/13 03:48:44;;;;;;;;;;;17.30;85.80;;;;;;5114008;28;19915;-91
2022/05/13 03:51:10;;;;;;;;;;;17.30;85.70;;;;;;5114199;28;19953;-91
2022/05/13 03:53:35;;;;;;;;;;;17.30;86.00;;;;;;5113952;28;20008;-91
2022/05/13 03:56:01;;;;;;;;;;;17.20;86.00;;;;;;5113574;28;19908;-91
2022/05/13 03:58:26;;;;;;;;;;;17.00;86.50;;;;;;5113595;28;19911;-91
2022/05/13 04:00:52;;;;;;;;;;;16.90;86.80;;;;;;5113892;28;19955;-91
2022/05/13 04:03:19;;;;;;;;;;;17.00;87.30;;;;;;5113774;28;19924;-90
2022/05/13 04:11:15;;;;;;;;;;;16.90;87.70;;;;;;5093413;28;19965;-91
2022/05/13 04:17:25;;;;;;;;;;;16.90;87.80;;;;;;5111458;28;19950;-91
2022/05/13 04:19:50;;;;;;;;;;;16.80;88.30;;;;;;5111068;28;19942;-90
2022/05/13 04:22:16;;;;;;;;;;;16.80;88.30;;;;;;5111046;28;19908;-90
2022/05/13 04:24:41;;;;;;;;;;;16.90;88.50;;;;;;5110965;28;19912;-90
2022/05/13 04:27:07;;;;;;;;;;;17.00;88.30;;;;;;5110949;28;19908;-91
2022/05/13 04:29:37;;;;;;;;;;;17.10;88.00;;;;;;5093864;28;20003;-90
2022/05/13 04:32:02;;;;;;;;;;;17.20;87.60;;;;;;5090443;28;19920;-90
2022/05/13 04:34:29;;;;;;;;;;;17.10;87.60;;;;;;5090353;28;19974;-90
2022/05/13 04:36:54;;;;;;;;;;;17.20;87.60;;;;;;5090424;28;19945;-91
2022/05/13 04:39:20;;;;;;;;;;;17.30;87.30;;;;;;5090636;28;19908;-91
2022/05/13 04:44:29;;;;;;;;;;;17.30;87.00;;;;;;5090114;28;20342;-90
2022/05/13 04:46:55;;;;;;;;;;;17.30;87.10;;;;;;5091133;28;19936;-90
2022/05/13 04:49:20;;;;;;;;;;;17.40;87.10;;;;;;5091194;28;19933;-90
2022/05/13 04:51:46;;;;;;;;;;;17.50;87.30;;;;;;5095997;28;19912;-91
2022/05/13 04:54:12;;;;;;;;;;;17.60;87.10;;;;;;5104649;28;19920;-90
2022/05/13 04:56:38;;;;;;;;;;;17.70;86.90;;;;;;5093503;28;20038;-90
2022/05/13 04:59:03;;;;;;;;;;;17.70;86.70;;;;;;5105177;28;19934;-90
2022/05/13 05:01:29;;;;;;;;;;;17.70;86.50;;;;;;5110294;28;20273;-90
2022/05/13 05:03:54;;;;;;;;;;;17.80;86.30;;;;;;5103734;28;19912;-90
2022/05/13 05:06:20;;;;;;;;;;;17.90;86.00;;;;;;5089850;28;19984;-91
2022/05/13 05:08:46;;;;;;;;;;;18.00;85.90;;;;;;5089757;28;19909;-90
2022/05/13 05:11:12;;;;;;;;;;;18.20;86.20;;;;;;5095328;28;19936;-90
2022/05/13 05:13:39;;;;;;;;;;;18.10;86.00;;;;;;5099585;28;19959;-90
2022/05/13 05:16:06;;;;;;;;;;;18.20;86.30;;;;;;5089671;28;20376;-90
2022/05/13 05:18:32;;;;;;;;;;;18.30;86.10;;;;;;5108655;28;20362;-90
2022/05/13 05:20:58;;;;;;;;;;;18.30;86.00;;;;;;5105080;28;19912;-90
2022/05/13 05:23:24;;;;;;;;;;;18.40;85.80;;;;;;5096374;28;19938;-89
2022/05/13 05:25:50;;;;;;;;;;;18.40;85.90;;;;;;5082597;28;19947;-90
2022/05/13 05:28:16;;;;;;;;;;;18.50;86.00;;;;;;5090186;28;20412;-90
2022/05/13 05:30:42;;;;;;;;;;;18.60;85.90;;;;;;5075922;28;19931;-90
2022/05/13 05:33:08;;;;;;;;;;;18.70;85.50;;;;;;5076862;28;19919;-90
2022/05/13 05:35:33;;;;;;;;;;;18.80;84.90;;;;;;5094605;28;19955;-90
2022/05/13 05:37:59;;;;;;;;;;;18.80;84.70;;;;;;5084446;28;19919;-90
2022/05/13 05:40:24;;;;;;;;;;;18.90;84.30;;;;;;5083756;28;21230;-90
2022/05/13 05:42:50;;;;;;;;;;;19.00;84.00;;;;;;5080739;28;19946;-90
2022/05/13 05:45:17;;;;;;;;;;;19.10;83.80;;;;;;5093198;28;19929;-90
2022/05/13 05:47:43;;;;;;;;;;;19.20;83.70;;;;;;5085338;28;20035;-90
2022/05/13 05:50:12;;;;;;;;;;;19.30;83.60;;;;;;5077754;28;20302;-90
2022/05/13 05:52:37;;;;;;;;;;;19.30;83.20;;;;;;5086682;28;19973;-91
2022/05/13 05:58:14;;;;;;;;;;;19.60;82.90;;;;;;5075761;28;19934;-91
2022/05/13 06:00:44;;;;;;;;;;;19.70;82.00;;;;;;5081403;28;19929;-90
2022/05/13 06:03:09;;;;;;;;;;;19.80;82.20;;;;;;5084098;28;19929;-90
2022/05/13 06:05:35;;;;;;;;;;;19.90;81.80;;;;;;5103905;28;20288;-90
2022/05/13 06:08:01;;;;;;;;;;;20.00;81.70;;;;;;5086374;28;20032;-90
2022/05/13 06:10:28;;;;;;;;;;;20.10;81.00;;;;;;5096791;28;19919;-91
2022/05/13 06:12:53;;;;;;;;;;;20.10;80.40;;;;;;5094351;28;20011;-91
2022/05/13 06:15:19;;;;;;;;;;;20.20;79.70;;;;;;5080188;28;20027;-91
2022/05/13 06:17:47;;;;;;;;;;;20.30;79.30;;;;;;5084305;28;19945;-90
2022/05/13 06:20:13;;;;;;;;;;;20.30;79.10;;;;;;5089318;28;19950;-90
2022/05/13 06:22:40;;;;;;;;;;;20.40;78.70;;;;;;5089823;28;20010;-90
2022/05/13 06:25:06;;;;;;;;;;;20.50;78.60;;;;;;5080470;28;19927;-90
2022/05/13 06:27:32;;;;;;;;;;;20.50;78.60;;;;;;5091894;28;20049;-90
2022/05/13 06:29:58;;;;;;;;;;;20.50;78.40;;;;;;5087082;28;20060;-90
2022/05/13 06:32:23;;;;;;;;;;;20.60;78.40;;;;;;5079539;28;19995;-89
2022/05/13 06:34:49;;;;;;;;;;;20.70;78.20;;;;;;5086776;28;19929;-91
2022/05/13 06:37:14;;;;;;;;;;;20.80;78.30;;;;;;5077993;28;19977;-90
2022/05/13 06:39:40;;;;;;;;;;;20.80;77.60;;;;;;5074971;28;19913;-90
2022/05/13 06:42:06;;;;;;;;;;;20.80;77.70;;;;;;5083573;28;19924;-90
2022/05/13 06:44:31;;;;;;;;;;;20.80;77.40;;;;;;5088574;28;20499;-90
2022/05/13 06:46:57;;;;;;;;;;;20.80;77.50;;;;;;5073198;28;19956;-90
2022/05/13 06:49:22;;;;;;;;;;;20.90;77.20;;;;;;5082922;28;19947;-91
2022/05/13 06:51:48;;;;;;;;;;;20.90;76.80;;;;;;5077763;28;19926;-90
2022/05/13 06:54:13;;;;;;;;;;;21.00;77.00;;;;;;5085871;28;19916;-90
2022/05/13 06:56:41;;;;;;;;;;;21.00;77.10;;;;;;5081273;28;19927;-90
2022/05/13 06:59:07;;;;;;;;;;;21.10;76.20;;;;;;5078994;28;19973;-91
2022/05/13 07:01:33;;;;;;;;;;;21.20;75.00;;;;;;5086050;28;19949;-90
2022/05/13 07:03:58;;;;;;;;;;;21.30;74.80;;;;;;5087792;28;19922;-90
2022/05/13 07:06:24;;;;;;;;;;;21.30;74.40;;;;;;5090366;28;19934;-90
2022/05/13 07:08:50;;;;;;;;;;;21.40;74.30;;;;;;5074967;28;19924;-90
2022/05/13 07:11:17;;;;;;;;;;;21.50;73.70;;;;;;5079492;28;19920;-90
2022/05/13 07:13:42;;;;;;;;;;;21.60;73.60;;;;;;5084858;28;20066;-89
2022/05/13 07:16:08;;;;;;;;;;;21.70;73.40;;;;;;5082321;28;20014;-90
2022/05/13 07:18:41;;;;;;;;;;;21.80;72.80;;;;;;5076010;28;19919;-89
2022/05/13 07:21:06;;;;;;;;;;;21.90;72.30;;;;;;5079238;28;19913;-89
2022/05/13 07:23:32;;;;;;;;;;;21.90;71.80;;;;;;5074479;28;20011;-89
2022/05/13 07:25:58;;;;;;;;;;;22.00;71.80;;;;;;5073273;28;19947;-89
2022/05/13 07:28:24;;;;;;;;;;;22.00;71.40;;;;;;5085802;28;20266;-89
2022/05/13 07:30:49;;;;;;;;;;;22.00;71.30;;;;;;5078173;28;19920;-90
2022/05/13 07:33:15;;;;;;;;;;;22.10;70.70;;;;;;5080328;28;19916;-89
2022/05/13 07:35:40;;;;;;;;;;;22.20;69.60;;;;;;5076386;28;20369;-89
2022/05/13 07:38:07;;;;;;;;;;;22.30;69.70;;;;;;5077866;28;20006;-89
2022/05/13 07:43:16;;;;;;;;;;;22.40;69.40;;;;;;5081229;28;20331;-89
2022/05/13 07:45:42;;;;;;;;;;;22.50;67.90;;;;;;5082981;28;20364;-90
2022/05/13 07:48:08;;;;;;;;;;;22.60;67.40;;;;;;5078154;28;19920;-90
2022/05/13 07:50:33;;;;;;;;;;;22.60;67.20;;;;;;5078316;28;20225;-90
2022/05/13 07:52:59;;;;;;;;;;;22.70;66.30;;;;;;5089553;28;19916;-89
2022/05/13 07:55:24;;;;;;;;;;;22.60;66.30;;;;;;5093381;28;20010;-89
2022/05/13 07:57:51;;;;;;;;;;;22.80;68.40;;;;;;5093633;28;19952;-90
2022/05/13 08:00:26;;;;;;;;;;;22.80;68.70;;;;;;5092992;28;19985;-89
2022/05/13 08:02:57;;;;;;;;;;;22.90;67.70;;;;;;5093303;28;19912;-90
2022/05/13 08:05:23;;;;;;;;;;;22.90;66.50;;;;;;5093264;28;19943;-90
2022/05/13 08:07:57;;;;;;;;;;;23.00;66.10;;;;;;5093538;28;19954;-90
2022/05/13 08:10:22;;;;;;;;;;;23.00;66.60;;;;;;5088025;28;19928;-90
2022/05/13 08:12:48;;;;;;;;;;;23.10;66.60;;;;;;5081888;28;19928;-90
2022/05/13 08:15:13;;;;;;;;;;;23.20;66.40;;;;;;5077011;28;19912;-90
2022/05/13 08:17:39;;;;;;;;;;;23.20;67.90;;;;;;5087866;28;19916;-90
2022/05/13 08:20:05;;;;;;;;;;;23.30;66.70;;;;;;5092820;28;19915;-90
2022/05/13 08:22:31;;;;;;;;;;;23.30;65.30;;;;;;5080181;28;19915;-90
2022/05/13 08:24:56;;;;;;;;;;;23.40;66.40;;;;;;5071533;28;20328;-90
2022/05/13 08:27:22;;;;;;;;;;;23.50;64.10;;;;;;5091354;28;19966;-90
2022/05/13 08:29:47;;;;;;;;;;;23.50;63.60;;;;;;5081832;28;20163;-89
2022/05/13 08:32:13;;;;;;;;;;;23.50;62.40;;;;;;5091875;28;19911;-89
2022/05/13 08:34:38;;;;;;;;;;;23.50;64.20;;;;;;5095226;28;19920;-90
2022/05/13 08:37:04;;;;;;;;;;;23.60;64.80;;;;;;5072940;28;19936;-90
2022/05/13 08:39:29;;;;;;;;;;;23.70;65.30;;;;;;5086847;28;20293;-89
2022/05/13 08:42:10;;;;;;;;;;;23.70;64.70;;;;;;5082079;28;20349;-90
2022/05/13 08:44:36;;;;;;;;;;;23.80;65.00;;;;;;5074059;28;19909;-90
2022/05/13 08:47:12;;;;;;;;;;;23.90;65.50;;;;;;5087943;28;20440;-90
2022/05/13 08:49:51;;;;;;;;;;;24.00;64.40;;;;;;5088042;28;20365;-90
2022/05/13 08:55:22;;;;;;;;;;;24.10;64.50;;;;;;5083091;28;19977;-89
2022/05/13 08:57:48;;;;;;;;;;;24.20;65.10;;;;;;5072578;28;19974;-90
2022/05/13 09:00:18;;;;;;;;;;;24.30;62.30;;;;;;5088235;28;20246;-90
2022/05/13 09:02:49;;;;;;;;;;;24.30;62.10;;;;;;5094796;28;19919;-90
2022/05/13 09:05:14;;;;;;;;;;;24.40;59.60;;;;;;5093355;28;20319;-90
2022/05/13 09:07:40;;;;;;;;;;;24.30;60.10;;;;;;5076235;28;19919;-90
2022/05/13 09:10:07;;;;;;;;;;;24.40;59.70;;;;;;5077555;28;19989;-89
2022/05/13 09:12:32;;;;;;;;;;;24.40;59.90;;;;;;5086092;28;19951;-90
2022/05/13 09:15:11;;;;;;;;;;;24.40;60.30;;;;;;5096368;28;19951;-90
2022/05/13 09:17:39;;;;;;;;;;;24.40;60.30;;;;;;5082461;28;20366;-90
2022/05/13 09:20:08;;;;;;;;;;;24.40;61.20;;;;;;5080079;28;19912;-90
2022/05/13 09:22:36;;;;;;;;;;;24.50;61.00;;;;;;5094851;28;19908;-90
2022/05/13 09:25:02;;;;;;;;;;;24.50;61.10;;;;;;5076875;28;19913;-90
2022/05/13 09:27:27;;;;;;;;;;;24.60;61.20;;;;;;5075834;28;19916;-90
2022/05/13 09:29:53;;;;;;;;;;;24.70;62.30;;;;;;5075742;28;19998;-90
2022/05/13 09:32:24;;;;;;;;;;;24.80;60.50;;;;;;5082145;28;19912;-90
2022/05/13 09:34:56;;;;;;;;;;;24.80;57.50;;;;;;5080402;28;19923;-90
2022/05/13 09:37:23;;;;;;;;;;;24.90;56.60;;;;;;5095211;28;20404;-90
2022/05/13 09:40:07;;;;;;;;;;;24.90;59.40;;;;;;5085957;28;19912;-90
2022/05/13 09:42:40;;;;;;;;;;;25.00;61.10;;;;;;5091032;28;19917;-90
2022/05/13 09:45:14;;;;;;;;;;;25.10;55.60;;;;;;5078318;28;19973;-90
2022/05/13 09:47:41;;;;;;;;;;;25.00;56.80;;;;;;5084239;28;19919;-89
2022/05/13 09:50:22;;;;;;;;;;;24.80;57.80;;;;;;5087695;28;20453;-90
2022/05/13 09:52:48;;;;;;;;;;;24.70;58.40;;;;;;5075320;28;19935;-89
2022/05/13 09:55:25;;;;;;;;;;;24.60;58.30;;;;;;5082335;28;20422;-89
2022/05/13 09:57:51;;;;;;;;;;;24.50;57.70;;;;;;5078068;28;19918;-90
2022/05/13 10:00:22;;;;;;;;;;;24.50;60.20;;;;;;5081960;28;19912;-89
2022/05/13 10:02:49;;;;;;;;;;;24.70;61.00;;;;;;5076760;28;20384;-90
2022/05/13 10:05:14;;;;;;;;;;;24.90;62.60;;;;;;5089769;28;19912;-90
2022/05/13 10:07:54;;;;;;;;;;;25.00;58.30;;;;;;5092674;28;19917;-90
2022/05/13 10:15:55;;;;;;;;;;;25.40;58.40;;;;;;5090633;28;19962;-90
2022/05/13 10:18:30;;;;;;;;;;;25.60;61.10;;;;;;5092055;28;19999;-89
2022/05/13 10:21:02;;;;;;;;;;;25.80;59.00;;;;;;5080501;28;19930;-90
2022/05/13 10:23:30;;;;;;;;;;;25.90;54.80;;;;;;5080620;28;19912;-91
2022/05/13 10:26:04;;;;;;;;;;;26.00;56.70;;;;;;5078379;28;19912;-90
2022/05/13 10:28:33;;;;;;;;;;;26.20;56.50;;;;;;5081732;28;19908;-90
2022/05/13 10:31:08;;;;;;;;;;;26.30;55.00;;;;;;5081694;28;20272;-90
2022/05/13 10:33:43;;;;;;;;;;;26.40;56.90;;;;;;5088382;28;19912;-90
2022/05/13 10:36:14;;;;;;;;;;;26.40;55.10;;;;;;5075709;28;19912;-89
2022/05/13 10:38:40;;;;;;;;;;;26.40;56.70;;;;;;5081367;28;19916;-89
2022/05/13 10:41:11;;;;;;;;;;;26.30;53.30;;;;;;5086269;28;19966;-90
2022/05/13 10:44:00;;;;;;;;;;;26.10;53.70;;;;;;5077377;28;19912;-90
2022/05/13 10:46:28;;;;;;;;;;;26.30;53.50;;;;;;5069642;28;19916;-90
2022/05/13 10:48:54;;;;;;;;;;;26.30;54.00;;;;;;5074279;28;19978;-89
2022/05/13 10:51:23;;;;;;;;;;;26.10;53.50;;;;;;5091071;28;19912;-90
2022/05/13 10:54:06;;;;;;;;;;;26.00;55.90;;;;;;5094855;28;19912;-89
2022/05/13 10:56:38;;;;;;;;;;;25.90;55.50;;;;;;5085026;28;20294;-89
2022/05/13 10:59:03;;;;;;;;;;;25.80;55.40;;;;;;5077848;28;20407;-90
2022/05/13 11:01:29;;;;;;;;;;;25.90;55.10;;;;;;5074360;28;19939;-89
2022/05/13 11:04:01;;;;;;;;;;;26.10;56.60;;;;;;5089413;28;19908;-90
2022/05/13 11:06:36;;;;;;;;;;;26.30;54.40;;;;;;5092742;28;19919;-90
2022/05/13 11:09:07;;;;;;;;;;;26.40;55.80;;;;;;5085429;28;19912;-89
2022/05/13 11:11:35;;;;;;;;;;;26.50;53.60;;;;;;5082662;28;19916;-90
2022/05/13 11:14:01;;;;;;;;;;;26.60;53.80;;;;;;5093853;28;21007;-89
2022/05/13 11:16:47;;;;;;;;;;;26.60;53.40;;;;;;5085228;28;20419;-90
2022/05/13 11:19:43;;;;;;;;;;;26.80;55.20;;;;;;5090298;28;19927;-90
2022/05/13 11:22:08;;;;;;;;;;;27.10;51.90;;;;;;5075464;28;19912;-90
2022/05/13 11:27:18;;;;;;;;;;;27.20;51.50;;;;;;5092415;28;19942;-90
2022/05/13 11:29:46;;;;;;;;;;;27.40;51.90;;;;;;5083564;28;19916;-90
2022/05/13 11:32:15;;;;;;;;;;;27.40;54.20;;;;;;5085568;28;20281;-90
2022/05/13 11:34:59;;;;;;;;;;;27.40;52.30;;;;;;5073002;28;19916;-90
2022/05/13 11:37:28;;;;;;;;;;;27.30;51.00;;;;;;5077741;28;19948;-90
2022/05/13 11:40:15;;;;;;;;;;;27.50;50.90;;;;;;5091486;28;20007;-90
2022/05/13 11:46:01;;;;;;;;;;;27.90;49.80;;;;;;5088133;28;20362;-90
2022/05/13 11:48:35;;;;;;;;;;;28.20;50.20;;;;;;5084478;28;20281;-90
2022/05/13 11:51:09;;;;;;;;;;;28.30;49.20;;;;;;5073546;28;19931;-90
2022/05/13 11:53:41;;;;;;;;;;;28.60;50.50;;;;;;5087804;28;19916;-89
2022/05/13 11:56:19;;;;;;;;;;;28.20;48.60;;;;;;5090263;28;19920;-90
2022/05/13 11:59:03;;;;;;;;;;;27.90;51.50;;;;;;5081179;28;19913;-89
2022/05/13 12:01:34;;;;;;;;;;;28.40;49.70;;;;;;5075672;28;19935;-90
2022/05/13 12:04:16;;;;;;;;;;;28.20;49.50;;;;;;5071981;28;20004;-90
2022/05/13 12:06:48;;;;;;;;;;;28.50;48.40;;;;;;5081359;28;20385;-90
2022/05/13 12:09:14;;;;;;;;;;;28.80;48.40;;;;;;5078189;28;19957;-90
2022/05/13 12:11:40;;;;;;;;;;;29.50;48.00;;;;;;5076886;28;19913;-89
2022/05/13 12:14:13;;;;;;;;;;;29.90;46.10;;;;;;5113220;22;19970;-90
2022/05/13 12:16:38;;;;;;;;;;;30.40;44.60;;;;;;5106510;28;19911;-90
2022/05/13 12:19:19;;;;;;;;;;;30.90;42.70;;;;;;5111366;28;19995;-90
2022/05/13 12:21:48;;;;;;;;;;;31.20;42.30;;;;;;5108985;28;19959;-90
2022/05/13 12:24:13;;;;;;;;;;;31.70;43.80;;;;;;5094306;28;19915;-91
2022/05/13 12:26:51;;;;;;;;;;;32.20;43.30;;;;;;5110839;28;20314;-90
2022/05/13 12:29:22;;;;;;;;;;;32.30;43.40;;;;;;5091146;28;20281;-90
2022/05/13 12:31:47;;;;;;;;;;;32.90;41.30;;;;;;5092684;28;19920;-90
2022/05/13 12:37:36;;;;;;;;;;;32.50;40.70;;;;;;5088794;28;19955;-90
2022/05/13 12:40:02;;;;;;;;;;;33.00;40.90;;;;;;5096641;28;19912;-90
2022/05/13 12:42:46;;;;;;;;;;;32.40;40.90;;;;;;5101687;28;19918;-90
2022/05/13 12:45:31;;;;;;;;;;;32.60;40.90;;;;;;5095904;28;19980;-90
2022/05/13 12:48:09;;;;;;;;;;;32.60;40.60;;;;;;5092213;28;20014;-91
2022/05/13 12:50:43;;;;;;;;;;;32.20;40.40;;;;;;5092462;28;19912;-90
2022/05/13 12:53:27;;;;;;;;;;;31.90;40.80;;;;;;5094164;28;19916;-90
2022/05/13 12:55:54;;;;;;;;;;;31.80;40.10;;;;;;5102873;28;19912;-90
2022/05/13 12:58:23;;;;;;;;;;;32.70;39.80;;;;;;5098668;28;19919;-91
2022/05/13 13:00:49;;;;;;;;;;;33.70;38.70;;;;;;5096114;28;19912;-90
2022/05/13 13:03:15;;;;;;;;;;;34.50;36.30;;;;;;5094121;28;20378;-90
2022/05/13 13:05:45;;;;;;;;;;;34.00;36.90;;;;;;5096489;28;20018;-90
2022/05/13 13:08:13;;;;;;;;;;;33.60;37.40;;;;;;5096581;28;19912;-90
2022/05/13 13:10:48;;;;;;;;;;;33.40;35.90;;;;;;5109648;28;19919;-90
2022/05/13 13:13:40;;;;;;;;;;;32.70;37.40;;;;;;5095341;28;20396;-91
2022/05/13 13:16:08;;;;;;;;;;;33.60;37.20;;;;;;5093951;28;19916;-90
2022/05/13 13:18:36;;;;;;;;;;;34.30;36.50;;;;;;5095851;28;20013;-91
2022/05/13 13:21:07;;;;;;;;;;;34.70;34.70;;;;;;5093234;28;20073;-90
2022/05/13 13:23:34;;;;;;;;;;;34.20;35.20;;;;;;5098036;28;19916;-90
2022/05/13 13:26:01;;;;;;;;;;;35.10;34.70;;;;;;5093571;28;19920;-91
2022/05/13 13:28:28;;;;;;;;;;;36.30;33.60;;;;;;5091514;28;19939;-91
2022/05/13 13:31:04;;;;;;;;;;;37.60;31.20;;;;;;5093054;28;19912;-91
2022/05/13 13:33:32;;;;;;;;;;;37.70;29.60;;;;;;5094984;28;19927;-90
2022/05/13 13:37:13;;;;;;;;;;;36.90;31.10;;;;;;5102935;27;19924;-90
2022/05/13 13:39:38;;;;;;;;;;;36.40;31.90;;;;;;5093936;28;19912;-91
2022/05/13 13:42:04;;;;;;;;;;;36.30;32.20;;;;;;5091810;28;20321;-90
2022/05/13 13:44:29;;;;;;;;;;;36.40;32.70;;;;;;5074952;28;20328;-91
2022/05/13 13:46:55;;;;;;;;;;;37.10;32.00;;;;;;5090091;28;20523;-91
2022/05/13 13:49:26;;;;;;;;;;;37.90;31.00;;;;;;5086085;28;19912;-91
2022/05/13 13:51:53;;;;;;;;;;;38.60;30.20;;;;;;5089142;28;19927;-91
2022/05/13 13:54:24;;;;;;;;;;;38.60;31.10;;;;;;5086452;28;20279;-92
2022/05/13 13:56:58;;;;;;;;;;;38.60;29.60;;;;;;5079458;28;19970;-92
2022/05/13 13:59:50;;;;;;;;;;;38.60;29.10;;;;;;5086964;28;19912;-91
2022/05/13 14:02:36;;;;;;;;;;;39.70;27.20;;;;;;5083031;28;19912;-91
2022/05/13 14:05:04;;;;;;;;;;;40.50;26.00;;;;;;5094187;28;19919;-91
2022/05/13 14:07:30;;;;;;;;;;;40.80;25.70;;;;;;5097004;28;19920;-91
2022/05/13 14:09:57;;;;;;;;;;;39.60;26.90;;;;;;5074575;28;20011;-91
2022/05/13 14:12:23;;;;;;;;;;;38.20;29.30;;;;;;5103205;28;19916;-91
2022/05/13 14:14:50;;;;;;;;;;;37.10;30.90;;;;;;5089909;28;19963;-91
2022/05/13 14:17:27;;;;;;;;;;;36.70;31.20;;;;;;5087732;28;20026;-91
2022/05/13 14:19:55;;;;;;;;;;;37.10;32.10;;;;;;5086470;28;20008;-91
2022/05/13 14:22:20;;;;;;;;;;;38.00;29.90;;;;;;5094640;28;19913;-91
2022/05/13 14:24:47;;;;;;;;;;;39.30;28.60;;;;;;5081150;28;19913;-91
2022/05/13 14:27:21;;;;;;;;;;;39.60;28.10;;;;;;5088300;28;19921;-91
2022/05/13 14:29:47;;;;;;;;;;;39.90;28.00;;;;;;5079238;28;20324;-91
2022/05/13 14:32:14;;;;;;;;;;;40.60;27.10;;;;;;5078331;28;19917;-92
2022/05/13 14:34:40;;;;;;;;;;;41.20;25.80;;;;;;5074742;28;19960;-91
2022/05/13 14:37:08;;;;;;;;;;;42.20;24.90;;;;;;5073149;28;20014;-91
2022/05/13 14:39:51;;;;;;;;;;;41.50;25.30;;;;;;5071120;28;19912;-91
2022/05/13 14:42:23;;;;;;;;;;;41.50;24.90;;;;;;5078330;28;19919;-91
2022/05/13 14:44:50;;;;;;;;;;;40.80;25.60;;;;;;5071891;28;19909;-91
2022/05/13 14:47:25;;;;;;;;;;;40.60;26.00;;;;;;5064621;28;19921;-90
2022/05/13 14:49:53;;;;;;;;;;;39.90;26.60;;;;;;5086245;28;19920;-91
2022/05/13 14:52:25;;;;;;;;;;;39.30;28.10;;;;;;5075761;28;19957;-91
2022/05/13 14:54:51;;;;;;;;;;;39.40;27.60;;;;;;5075683;28;19916;-91
2022/05/13 14:57:17;;;;;;;;;;;38.50;27.80;;;;;;5074011;28;19919;-91
2022/05/13 14:59:51;;;;;;;;;;;36.60;31.40;;;;;;5060708;28;19916;-91
2022/05/13 15:02:35;;;;;;;;;;;36.50;31.50;;;;;;5061427;28;19919;-91